Time;durP1;ratioP1;P1;durP2;ratioP2;P2;SDS_P1;SDS_P2;PMS_P1;PMS_P2;Temp;Humidity;BMP_temperature;BMP_pressure;BME280_temperature;BME280_humidity;BME280_pressure;Samples;Min_cycle;Max_cycle;Signal;HPM_P1;HPM_P2
2022/07/11 00:01:39;;;;;;;3.47;1.37;;;13.80;99.90;;;;;;7371157;19;20333;-77
2022/07/11 00:04:05;;;;;;;2.38;1.70;;;13.70;99.90;;;;;;7367424;19;20352;-76
2022/07/11 00:06:30;;;;;;;2.30;1.60;;;13.70;99.90;;;;;;7357436;19;20352;-80
2022/07/11 00:08:56;;;;;;;1.43;1.17;;;13.60;99.90;;;;;;7359530;19;20345;-76
2022/07/11 00:11:21;;;;;;;1.95;1.35;;;13.60;99.90;;;;;;7360996;19;22430;-76
2022/07/11 00:13:47;;;;;;;1.20;1.00;;;13.60;99.90;;;;;;7355890;19;20358;-78
2022/07/11 00:16:13;;;;;;;1.20;1.10;;;13.60;99.90;;;;;;7357030;19;20450;-77
2022/07/11 00:18:39;;;;;;;1.67;1.02;;;13.40;99.90;;;;;;7352131;19;21248;-75
2022/07/11 00:21:04;;;;;;;2.95;1.20;;;13.40;99.90;;;;;;7370380;19;20337;-75
2022/07/11 00:23:30;;;;;;;1.47;1.10;;;13.40;99.90;;;;;;7375695;19;20329;-75
2022/07/11 00:25:55;;;;;;;1.40;1.07;;;13.40;99.90;;;;;;7373767;19;20366;-79
2022/07/11 00:28:21;;;;;;;4.00;1.30;;;13.30;99.90;;;;;;7368547;19;20895;-77
2022/07/11 00:30:47;;;;;;;2.50;1.30;;;13.20;99.90;;;;;;7370767;19;20337;-75
2022/07/11 00:33:12;;;;;;;2.57;1.10;;;13.10;99.90;;;;;;7372784;19;20681;-76
2022/07/11 00:35:38;;;;;;;3.70;1.20;;;13.00;99.90;;;;;;7371482;19;20364;-76
2022/07/11 00:38:03;;;;;;;1.80;1.27;;;12.80;99.90;;;;;;7373901;19;20364;-77
2022/07/11 00:40:29;;;;;;;3.27;1.30;;;12.80;99.90;;;;;;7374297;19;20325;-75
2022/07/11 00:42:54;;;;;;;1.23;1.10;;;12.70;99.90;;;;;;7376071;19;20355;-75
2022/07/11 00:45:20;;;;;;;2.60;1.20;;;12.70;99.90;;;;;;7381888;19;20317;-75
2022/07/11 00:47:46;;;;;;;1.30;1.13;;;12.70;99.90;;;;;;7380028;19;20340;-77
2022/07/11 00:50:11;;;;;;;2.65;1.27;;;12.60;99.90;;;;;;7380527;19;20315;-75
2022/07/11 00:52:37;;;;;;;1.27;1.17;;;12.60;99.90;;;;;;7382012;19;20317;-75
2022/07/11 00:55:03;;;;;;;1.70;1.10;;;12.60;99.90;;;;;;7377988;19;20372;-75
2022/07/11 00:57:28;;;;;;;2.00;1.23;;;12.50;99.90;;;;;;7375451;19;20325;-78
2022/07/11 00:59:54;;;;;;;1.60;1.10;;;12.50;99.90;;;;;;7379909;19;20621;-78
2022/07/11 01:02:20;;;;;;;1.97;1.20;;;12.60;99.90;;;;;;7381196;19;20313;-75
2022/07/11 01:04:45;;;;;;;1.95;1.20;;;12.40;99.90;;;;;;7377193;19;20993;-78
2022/07/11 01:07:11;;;;;;;3.23;1.37;;;12.40;99.90;;;;;;7378122;19;20317;-75
2022/07/11 01:09:37;;;;;;;2.58;1.33;;;12.30;99.90;;;;;;7381337;19;20412;-75
2022/07/11 01:12:03;;;;;;;1.30;1.13;;;12.40;99.90;;;;;;7379990;19;20341;-75
2022/07/11 01:14:28;;;;;;;1.83;1.40;;;12.20;99.90;;;;;;7377495;19;20329;-76
2022/07/11 01:16:54;;;;;;;2.00;1.17;;;12.20;99.90;;;;;;7379669;19;20750;-75
2022/07/11 01:19:19;;;;;;;1.20;1.10;;;12.10;99.90;;;;;;7378498;19;20301;-76
2022/07/11 01:21:48;;;;;;;1.10;1.00;;;12.20;99.90;;;;;;7383137;19;20391;-75
2022/07/11 01:24:14;;;;;;;2.20;1.20;;;12.10;99.90;;;;;;7376352;19;21925;-75
2022/07/11 01:26:40;;;;;;;1.20;1.10;;;12.10;99.90;;;;;;7377350;19;20423;-77
2022/07/11 01:29:09;;;;;;;1.45;0.93;;;12.20;99.90;;;;;;7378954;19;20375;-75
2022/07/11 01:31:35;;;;;;;1.38;1.00;;;12.10;99.90;;;;;;7377302;19;20305;-75
2022/07/11 01:34:00;;;;;;;1.20;1.10;;;12.10;99.90;;;;;;7378646;19;20404;-75
2022/07/11 01:36:26;;;;;;;1.23;1.13;;;12.10;99.90;;;;;;7378421;19;20356;-75
2022/07/11 01:38:51;;;;;;;1.50;1.23;;;12.00;99.90;;;;;;7377878;19;21266;-75
2022/07/11 01:41:17;;;;;;;2.90;1.17;;;12.00;99.90;;;;;;7378881;19;20309;-75
2022/07/11 01:43:43;;;;;;;2.33;1.50;;;12.00;99.90;;;;;;7376622;19;20404;-74
2022/07/11 01:46:08;;;;;;;2.23;1.30;;;12.00;99.90;;;;;;7377414;19;20332;-76
2022/07/11 01:48:34;;;;;;;1.85;1.02;;;12.00;99.90;;;;;;7379464;19;20316;-75
2022/07/11 01:50:59;;;;;;;4.23;1.23;;;11.90;99.90;;;;;;7379573;19;20349;-75
2022/07/11 01:53:25;;;;;;;1.33;1.20;;;11.90;99.90;;;;;;7375561;19;20317;-75
2022/07/11 01:55:51;;;;;;;1.40;1.20;;;11.80;99.90;;;;;;7377282;19;20347;-74
2022/07/11 01:58:16;;;;;;;2.23;1.10;;;11.80;99.90;;;;;;7381207;19;20993;-75
2022/07/11 02:00:42;;;;;;;2.53;1.23;;;11.80;99.90;;;;;;7377938;19;20296;-74
2022/07/11 02:03:08;;;;;;;2.97;1.67;;;11.70;99.90;;;;;;7375420;19;20684;-75
2022/07/11 02:05:34;;;;;;;1.20;1.10;;;11.80;99.90;;;;;;7376690;19;20411;-75
2022/07/11 02:08:11;;;;;;;1.30;1.17;;;11.70;99.90;;;;;;7378391;19;20356;-77
2022/07/11 02:10:44;;;;;;;1.40;1.30;;;11.60;99.90;;;;;;7377389;19;25080;-75
2022/07/11 02:13:10;;;;;;;3.92;1.48;;;11.60;99.90;;;;;;7377514;19;20333;-75
2022/07/11 02:15:35;;;;;;;1.88;1.20;;;11.50;99.90;;;;;;7376160;19;20320;-75
2022/07/11 02:18:01;;;;;;;1.50;1.13;;;11.50;99.90;;;;;;7378246;19;20446;-74
2022/07/11 02:20:26;;;;;;;1.93;1.30;;;11.50;99.90;;;;;;7377771;19;20409;-75
2022/07/11 02:22:52;;;;;;;1.77;1.20;;;11.50;99.90;;;;;;7376569;19;21122;-75
2022/07/11 02:25:18;;;;;;;2.25;1.40;;;11.40;99.90;;;;;;7378240;19;20329;-75
2022/07/11 02:27:44;;;;;;;2.73;1.50;;;11.40;99.90;;;;;;7377642;19;20316;-76
2022/07/11 02:30:09;;;;;;;3.00;1.35;;;11.40;99.90;;;;;;7378632;19;20316;-74
2022/07/11 02:32:35;;;;;;;2.30;1.30;;;11.40;99.90;;;;;;7378744;19;20860;-75
2022/07/11 02:35:01;;;;;;;1.98;1.60;;;11.40;99.90;;;;;;7375556;19;20332;-75
2022/07/11 02:37:26;;;;;;;3.03;1.70;;;11.40;99.90;;;;;;7376786;19;21196;-74
2022/07/11 02:39:52;;;;;;;2.23;1.50;;;11.40;99.90;;;;;;7379356;19;20344;-75
2022/07/11 02:42:18;;;;;;;1.52;1.30;;;11.40;99.90;;;;;;7379660;19;20344;-75
2022/07/11 02:44:44;;;;;;;1.73;1.33;;;11.30;99.90;;;;;;7375419;19;20339;-75
2022/07/11 02:47:10;;;;;;;1.38;1.23;;;11.30;99.90;;;;;;7376443;19;20660;-75
2022/07/11 02:49:35;;;;;;;3.00;1.53;;;11.30;99.90;;;;;;7380314;19;20352;-75
2022/07/11 02:52:01;;;;;;;4.80;1.57;;;11.20;99.90;;;;;;7379955;19;20760;-75
2022/07/11 02:54:26;;;;;;;3.85;1.50;;;11.30;99.90;;;;;;7377415;19;20328;-74
2022/07/11 02:56:52;;;;;;;2.33;1.60;;;11.20;99.90;;;;;;7376430;19;20353;-77
2022/07/11 02:59:18;;;;;;;1.88;1.40;;;11.20;99.90;;;;;;7379123;19;20316;-74
2022/07/11 03:01:43;;;;;;;1.90;1.37;;;11.20;99.90;;;;;;7377710;19;20375;-75
2022/07/11 03:04:09;;;;;;;1.60;1.30;;;11.20;99.90;;;;;;7373583;19;20332;-75
2022/07/11 03:06:35;;;;;;;1.38;1.27;;;11.10;99.90;;;;;;7370735;19;20317;-75
2022/07/11 03:09:01;;;;;;;1.52;1.33;;;11.00;99.90;;;;;;7378771;19;20355;-75
2022/07/11 03:11:27;;;;;;;2.53;1.53;;;10.90;99.90;;;;;;7378901;19;20337;-75
2022/07/11 03:13:52;;;;;;;2.50;1.60;;;11.00;99.90;;;;;;7378375;19;20453;-75
2022/07/11 03:16:18;;;;;;;3.30;1.47;;;11.00;99.90;;;;;;7377961;19;20321;-76
2022/07/11 03:18:43;;;;;;;3.63;1.58;;;11.00;99.90;;;;;;7376415;19;20777;-74
2022/07/11 03:21:09;;;;;;;3.57;1.90;;;11.00;99.90;;;;;;7378849;19;20371;-75
2022/07/11 03:23:35;;;;;;;1.80;1.40;;;11.00;99.90;;;;;;7378022;19;20346;-75
2022/07/11 03:26:00;;;;;;;1.77;1.33;;;11.00;99.90;;;;;;7377927;19;20344;-75
2022/07/11 03:28:26;;;;;;;1.60;1.38;;;11.00;99.90;;;;;;7372490;19;20408;-75
2022/07/11 03:30:52;;;;;;;1.60;1.30;;;11.10;99.90;;;;;;7377679;19;20414;-75
2022/07/11 03:33:17;;;;;;;3.90;1.50;;;11.10;99.90;;;;;;7378342;19;20353;-75
2022/07/11 03:35:43;;;;;;;1.85;1.63;;;11.00;99.90;;;;;;7376588;19;20716;-75
2022/07/11 03:38:09;;;;;;;2.93;1.53;;;11.00;99.90;;;;;;7376803;19;20300;-75
2022/07/11 03:40:35;;;;;;;2.30;1.50;;;11.00;99.90;;;;;;7376341;19;20409;-75
2022/07/11 03:43:01;;;;;;;1.30;1.20;;;11.10;99.90;;;;;;7361090;19;20408;-75
2022/07/11 03:45:27;;;;;;;2.22;1.58;;;11.10;99.90;;;;;;7375845;19;20337;-76
2022/07/11 03:47:53;;;;;;;5.30;2.50;;;11.10;99.90;;;;;;7372603;19;20688;-75
2022/07/11 03:50:18;;;;;;;2.83;1.60;;;11.20;99.90;;;;;;7376363;19;20305;-76
2022/07/11 03:52:44;;;;;;;2.90;1.60;;;11.20;99.90;;;;;;7375840;19;20315;-75
2022/07/11 03:55:09;;;;;;;1.45;1.35;;;11.20;99.90;;;;;;7376780;19;20330;-76
2022/07/11 03:57:36;;;;;;;2.70;1.60;;;11.20;99.90;;;;;;7373124;19;20372;-76
2022/07/11 04:00:04;;;;;;;2.97;1.42;;;11.10;99.90;;;;;;7373429;19;20942;-75
2022/07/11 04:02:30;;;;;;;3.85;1.80;;;11.30;99.90;;;;;;7378049;19;20348;-75
2022/07/11 04:04:56;;;;;;;2.97;1.60;;;11.30;99.90;;;;;;7375226;19;20447;-75
2022/07/11 04:07:21;;;;;;;3.83;1.92;;;11.40;99.90;;;;;;7372966;19;20868;-74
2022/07/11 04:09:47;;;;;;;1.50;1.40;;;11.40;99.90;;;;;;7375393;19;20340;-74
2022/07/11 04:12:12;;;;;;;2.67;1.58;;;11.40;99.90;;;;;;7375288;19;20317;-74
2022/07/11 04:14:38;;;;;;;2.53;1.50;;;11.50;99.90;;;;;;7375383;19;20480;-74
2022/07/11 04:17:04;;;;;;;2.60;1.40;;;11.60;99.90;;;;;;7377046;19;20383;-75
2022/07/11 04:19:29;;;;;;;2.22;1.52;;;11.70;99.90;;;;;;7379883;19;20736;-77
2022/07/11 04:21:55;;;;;;;2.00;1.70;;;11.70;99.90;;;;;;7382058;19;20879;-76
2022/07/11 04:24:21;;;;;;;2.43;1.80;;;11.80;99.90;;;;;;7381670;19;20324;-76
2022/07/11 04:26:47;;;;;;;4.03;2.50;;;11.80;99.90;;;;;;7382919;19;20320;-76
2022/07/11 04:29:12;;;;;;;1.90;1.80;;;11.90;99.90;;;;;;7379717;19;20310;-75
2022/07/11 04:31:38;;;;;;;2.10;1.60;;;12.00;99.90;;;;;;7381229;19;20654;-75
2022/07/11 04:34:03;;;;;;;1.80;1.50;;;12.10;99.90;;;;;;7383289;19;20379;-75
2022/07/11 04:36:29;;;;;;;2.30;1.80;;;12.10;99.90;;;;;;7382750;19;20321;-75
2022/07/11 04:38:54;;;;;;;2.17;1.60;;;12.20;99.90;;;;;;7379182;19;20336;-75
2022/07/11 04:41:20;;;;;;;2.10;1.70;;;12.20;99.90;;;;;;7383573;19;20900;-77
2022/07/11 04:43:46;;;;;;;1.90;1.45;;;12.30;99.90;;;;;;7382506;19;20341;-77
2022/07/11 04:46:11;;;;;;;3.30;1.93;;;12.40;99.90;;;;;;7381316;19;20345;-75
2022/07/11 04:48:38;;;;;;;3.67;1.53;;;12.50;99.90;;;;;;7378822;19;20321;-75
2022/07/11 04:51:07;;;;;;;2.97;1.70;;;12.50;99.90;;;;;;7381127;19;20344;-76
2022/07/11 04:53:33;;;;;;;3.17;1.80;;;12.60;99.90;;;;;;7383510;19;20330;-75
2022/07/11 04:55:59;;;;;;;3.53;2.13;;;12.70;99.90;;;;;;7381099;19;20746;-77
2022/07/11 04:58:25;;;;;;;1.97;1.70;;;12.90;99.90;;;;;;7377294;19;20852;-75
2022/07/11 05:00:51;;;;;;;3.83;1.85;;;12.90;99.90;;;;;;7380382;19;21311;-75
2022/07/11 05:03:17;;;;;;;2.03;1.60;;;13.10;99.90;;;;;;7382648;19;20352;-76
2022/07/11 05:05:42;;;;;;;3.53;2.00;;;13.20;99.90;;;;;;7381300;19;20308;-75
2022/07/11 05:08:08;;;;;;;2.45;1.60;;;13.40;99.90;;;;;;7379211;19;20312;-77
2022/07/11 05:10:36;;;;;;;3.13;1.70;;;13.50;99.90;;;;;;7382091;19;20368;-75
2022/07/11 05:13:02;;;;;;;3.35;1.63;;;13.60;99.90;;;;;;7381466;19;20367;-75
2022/07/11 05:15:27;;;;;;;2.50;1.70;;;13.60;99.90;;;;;;7378694;19;20428;-76
2022/07/11 05:17:53;;;;;;;3.33;1.60;;;13.80;99.90;;;;;;7377582;19;21049;-76
2022/07/11 05:20:19;;;;;;;2.55;1.60;;;13.90;99.90;;;;;;7377953;19;20384;-76
2022/07/11 05:22:44;;;;;;;2.17;1.63;;;14.00;99.90;;;;;;7380140;19;20309;-76
2022/07/11 05:25:10;;;;;;;2.53;1.60;;;14.10;99.90;;;;;;7376057;19;20316;-76
2022/07/11 05:27:35;;;;;;;3.85;1.67;;;14.20;99.90;;;;;;7372554;19;20344;-75
2022/07/11 05:30:01;;;;;;;2.67;1.60;;;14.30;99.90;;;;;;7376011;19;20354;-77
2022/07/11 05:32:27;;;;;;;3.63;1.90;;;14.30;99.90;;;;;;7375535;19;20329;-77
2022/07/11 05:34:54;;;;;;;2.63;1.52;;;14.40;99.90;;;;;;7373838;19;21261;-77
2022/07/11 05:37:19;;;;;;;2.13;1.50;;;14.60;99.90;;;;;;7372771;19;20447;-77
2022/07/11 05:39:45;;;;;;;4.40;1.77;;;14.50;99.90;;;;;;7377304;19;20310;-77
2022/07/11 05:42:11;;;;;;;2.70;1.70;;;14.60;99.90;;;;;;7379870;19;20296;-76
2022/07/11 05:44:37;;;;;;;4.03;1.75;;;14.60;99.90;;;;;;7377212;19;20739;-76
2022/07/11 05:47:02;;;;;;;1.77;1.50;;;14.70;99.90;;;;;;7378290;19;20424;-76
2022/07/11 05:49:30;;;;;;;1.53;1.37;;;14.80;99.90;;;;;;7380838;19;20348;-76
2022/07/11 05:51:55;;;;;;;2.03;1.42;;;15.00;99.90;;;;;;7377547;19;20365;-76
2022/07/11 05:54:21;;;;;;;2.30;1.45;;;14.80;99.90;;;;;;7376250;19;20348;-76
2022/07/11 05:56:46;;;;;;;3.55;1.65;;;15.00;99.90;;;;;;7375778;19;20359;-76
2022/07/11 05:59:13;;;;;;;2.57;1.70;;;15.00;99.90;;;;;;7379378;19;20321;-76
2022/07/11 06:01:39;;;;;;;2.83;1.63;;;14.90;99.90;;;;;;7379092;19;20334;-76
2022/07/11 06:04:05;;;;;;;2.67;1.73;;;14.90;99.90;;;;;;7376865;19;20336;-76
2022/07/11 06:06:30;;;;;;;2.30;1.52;;;14.60;99.90;;;;;;7378076;19;20404;-76
2022/07/11 06:08:56;;;;;;;4.17;1.90;;;14.80;99.90;;;;;;7378339;19;20357;-76
2022/07/11 06:11:21;;;;;;;2.83;1.37;;;14.80;99.90;;;;;;7378442;19;20676;-76
2022/07/11 06:13:49;;;;;;;2.13;1.55;;;14.90;99.90;;;;;;7376976;19;20340;-79
2022/07/11 06:16:15;;;;;;;3.25;1.77;;;14.90;99.90;;;;;;7379170;19;20316;-79
2022/07/11 06:18:41;;;;;;;2.03;1.70;;;14.70;99.90;;;;;;7379034;19;20289;-75
2022/07/11 06:21:06;;;;;;;2.63;1.73;;;14.70;99.90;;;;;;7378409;19;20341;-76
2022/07/11 06:23:34;;;;;;;2.20;1.73;;;14.80;99.90;;;;;;7376864;19;20328;-79
2022/07/11 06:25:59;;;;;;;2.85;1.58;;;14.90;99.90;;;;;;7379588;19;20337;-76
2022/07/11 06:28:25;;;;;;;2.25;1.50;;;15.00;99.90;;;;;;7377286;19;20317;-77
2022/07/11 06:30:51;;;;;;;2.25;1.60;;;15.20;99.90;;;;;;7377338;19;20373;-76
2022/07/11 06:33:17;;;;;;;2.20;1.55;;;15.30;99.90;;;;;;7376855;19;20340;-76
2022/07/11 06:35:44;;;;;;;2.92;1.70;;;15.50;99.90;;;;;;7376346;19;20349;-76
2022/07/11 06:38:09;;;;;;;2.85;1.65;;;15.70;99.90;;;;;;7378188;19;21165;-77
2022/07/11 06:40:35;;;;;;;1.40;1.30;;;15.70;99.90;;;;;;7375962;19;20349;-76
2022/07/11 06:43:01;;;;;;;2.33;1.42;;;15.80;99.90;;;;;;7374987;19;20364;-77
2022/07/11 06:45:29;;;;;;;2.50;1.70;;;15.90;99.90;;;;;;7376980;19;20344;-79
2022/07/11 06:47:55;;;;;;;4.03;1.60;;;16.00;99.90;;;;;;7379664;19;20325;-77
2022/07/11 06:50:20;;;;;;;2.95;1.42;;;16.00;99.90;;;;;;7378518;19;20332;-78
2022/07/11 06:52:47;;;;;;;1.98;1.77;;;16.10;99.90;;;;;;7376264;19;20352;-77
2022/07/11 06:55:12;;;;;;;2.33;1.42;;;16.30;99.90;;;;;;7376627;19;20380;-77
2022/07/11 06:57:38;;;;;;;2.27;1.50;;;16.40;99.90;;;;;;7375982;19;20389;-80
2022/07/11 07:00:05;;;;;;;4.53;1.70;;;16.60;99.90;;;;;;7377097;19;20364;-77
2022/07/11 07:02:30;;;;;;;3.25;1.40;;;16.70;99.90;;;;;;7379046;19;20312;-80
2022/07/11 07:04:58;;;;;;;2.60;1.50;;;16.80;99.90;;;;;;7374969;19;20345;-81
2022/07/11 07:07:24;;;;;;;3.70;1.50;;;17.00;99.90;;;;;;7380950;19;21252;-79
2022/07/11 07:09:50;;;;;;;1.88;1.33;;;17.00;99.90;;;;;;7380734;19;20309;-79
2022/07/11 07:12:15;;;;;;;1.43;1.27;;;17.20;99.90;;;;;;7380543;19;20315;-80
2022/07/11 07:14:41;;;;;;;3.43;1.43;;;17.30;99.90;;;;;;7376689;19;20313;-79
2022/07/11 07:17:06;;;;;;;2.03;1.50;;;17.40;99.90;;;;;;7379102;19;20355;-79
2022/07/11 07:19:32;;;;;;;3.43;1.60;;;17.20;99.90;;;;;;7381907;19;20379;-79
2022/07/11 07:21:58;;;;;;;1.77;1.43;;;17.30;99.90;;;;;;7379859;19;20321;-80
2022/07/11 07:24:23;;;;;;;2.25;1.30;;;17.20;99.90;;;;;;7378339;19;21184;-79
2022/07/11 07:26:49;;;;;;;4.03;1.63;;;17.40;99.90;;;;;;7380531;19;20345;-80
2022/07/11 07:29:14;;;;;;;2.67;1.57;;;17.50;99.90;;;;;;7378795;19;20303;-78
2022/07/11 07:31:40;;;;;;;2.27;1.53;;;17.50;99.90;;;;;;7379710;19;20320;-79
2022/07/11 07:34:05;;;;;;;3.38;1.45;;;17.40;99.90;;;;;;7377087;19;20444;-81
2022/07/11 07:36:31;;;;;;;1.90;1.43;;;17.70;99.90;;;;;;7378491;19;20898;-80
2022/07/11 07:38:57;;;;;;;1.67;1.10;;;17.80;99.90;;;;;;7378434;19;20340;-79
2022/07/11 07:41:22;;;;;;;2.33;1.48;;;17.90;99.90;;;;;;7376884;19;20325;-80
2022/07/11 07:43:51;;;;;;;2.67;1.53;;;18.00;99.90;;;;;;7376770;19;20349;-79
2022/07/11 07:46:17;;;;;;;2.08;1.33;;;18.00;99.90;;;;;;7377725;19;20320;-81
2022/07/11 07:48:43;;;;;;;2.55;1.63;;;18.30;99.90;;;;;;7377123;19;20305;-79
2022/07/11 07:51:08;;;;;;;3.30;1.30;;;18.30;99.90;;;;;;7378324;19;20975;-81
2022/07/11 07:53:34;;;;;;;2.90;1.45;;;18.40;99.90;;;;;;7380212;19;20351;-79
2022/07/11 07:56:00;;;;;;;3.50;1.50;;;18.50;99.90;;;;;;7383829;19;20333;-79
2022/07/11 07:58:26;;;;;;;1.52;1.13;;;18.50;99.90;;;;;;7383414;19;20313;-78
2022/07/11 08:03:35;;;;;;;3.40;1.50;;;18.50;99.90;;;;;;7383788;19;20331;-79
2022/07/11 08:06:01;;;;;;;2.42;1.58;;;18.60;99.90;;;;;;7384498;19;20333;-79
2022/07/11 08:08:26;;;;;;;3.63;1.45;;;18.60;99.90;;;;;;7386347;19;20341;-79
2022/07/11 08:10:52;;;;;;;4.50;1.87;;;18.70;99.90;;;;;;7382098;19;20942;-80
2022/07/11 08:13:19;;;;;;;2.57;1.40;;;18.80;99.90;;;;;;7382393;19;20304;-80
2022/07/11 08:15:44;;;;;;;2.10;1.30;;;18.80;99.90;;;;;;7381210;19;20756;-83
2022/07/11 08:18:10;;;;;;;2.10;1.30;;;18.90;99.90;;;;;;7384129;19;20324;-80
2022/07/11 08:20:35;;;;;;;3.70;1.50;;;19.20;99.90;;;;;;7383868;19;20420;-79
2022/07/11 08:23:01;;;;;;;1.40;1.20;;;19.50;99.90;;;;;;7378626;19;20353;-80
2022/07/11 08:25:27;;;;;;;4.82;1.90;;;19.70;99.90;;;;;;7383517;19;20324;-79
2022/07/11 08:27:53;;;;;;;2.25;1.40;;;19.60;99.90;;;;;;7382031;19;20731;-79
2022/07/11 08:30:18;;;;;;;2.72;1.30;;;19.40;99.90;;;;;;7381786;19;20295;-79
2022/07/11 08:32:44;;;;;;;4.93;1.50;;;19.50;99.90;;;;;;7383371;19;20883;-81
2022/07/11 08:35:11;;;;;;;2.40;1.43;;;19.80;99.90;;;;;;7383263;19;20345;-79
2022/07/11 08:37:36;;;;;;;2.17;1.20;;;19.90;99.90;;;;;;7381747;19;20341;-79
2022/07/11 08:40:02;;;;;;;1.83;1.37;;;20.20;99.90;;;;;;7379116;19;20332;-81
2022/07/11 08:42:29;;;;;;;3.60;1.20;;;20.40;99.90;;;;;;7381958;19;20331;-79
2022/07/11 08:44:55;;;;;;;1.45;1.35;;;20.70;99.90;;;;;;7379215;19;20907;-79
2022/07/11 08:47:21;;;;;;;2.78;1.25;;;20.70;99.90;;;;;;7380271;19;20348;-81
2022/07/11 08:49:46;;;;;;;1.43;1.33;;;20.60;99.90;;;;;;7382280;19;20332;-80
2022/07/11 08:52:12;;;;;;;2.20;1.38;;;21.00;99.90;;;;;;7380866;19;20325;-79
2022/07/11 08:54:38;;;;;;;2.53;1.40;;;21.10;99.90;;;;;;7381481;19;20336;-79
2022/07/11 08:57:04;;;;;;;2.55;1.40;;;21.10;99.90;;;;;;7380463;19;21253;-82
2022/07/11 08:59:30;;;;;;;2.40;1.23;;;21.00;99.90;;;;;;7380961;19;20320;-79
2022/07/11 09:01:56;;;;;;;5.85;1.60;;;21.30;99.90;;;;;;7382152;19;20337;-80
2022/07/11 09:04:23;;;;;;;3.20;1.40;;;21.90;99.90;;;;;;7378571;19;20333;-81
2022/07/11 09:06:49;;;;;;;3.30;1.50;;;22.00;99.90;;;;;;7383374;19;20375;-78
2022/07/11 09:09:14;;;;;;;1.37;1.23;;;22.40;99.90;;;;;;7385306;19;20951;-80
2022/07/11 09:11:50;;;;;;;2.88;1.50;;;22.10;99.90;;;;;;7383475;19;20396;-79
2022/07/11 09:14:26;;;;;;;2.03;1.30;;;21.90;99.90;;;;;;7381044;19;20336;-81
2022/07/11 09:17:03;;;;;;;3.25;1.02;;;22.00;99.90;;;;;;7281353;19;2005892;-77
2022/07/11 09:19:30;;;;;;;1.88;1.15;;;21.80;99.90;;;;;;7385656;19;20384;-80
2022/07/11 09:28:06;;;;;;;1.40;1.30;;;21.60;99.90;;;;;;7277660;19;2004943;-83
2022/07/11 09:30:35;;;;;;;1.80;1.20;;;22.00;99.90;;;;;;7380315;19;20439;-81
2022/07/11 09:33:02;;;;;;;2.57;1.40;;;21.90;99.90;;;;;;7382821;19;20361;-82
2022/07/11 09:35:32;;;;;;;2.08;1.10;;;22.30;99.90;;;;;;7383684;19;20958;-80
2022/07/11 09:37:57;;;;;;;3.00;1.30;;;22.90;99.90;;;;;;7384421;19;20321;-83
2022/07/11 09:40:23;;;;;;;3.17;1.45;;;22.80;99.90;;;;;;7382458;19;20665;-78
2022/07/11 09:42:50;;;;;;;3.27;1.40;;;23.10;99.90;;;;;;7381757;19;20309;-81
2022/07/11 09:45:16;;;;;;;2.22;1.30;;;23.50;99.90;;;;;;7383496;19;20308;-80
2022/07/11 09:47:50;;;;;;;1.50;1.30;;;23.50;99.90;;;;;;7382757;19;20308;-78
2022/07/11 09:50:25;;;;;;;3.33;1.30;;;23.80;99.90;;;;;;7381106;19;20417;-79
2022/07/11 09:53:18;;;;;;;2.50;1.20;;;24.10;99.90;;;;;;7382181;19;20309;-80
2022/07/11 09:55:45;;;;;;;2.35;1.40;;;24.00;99.90;;;;;;7281596;19;2019856;-81
2022/07/11 09:58:14;;;;;;;3.15;1.25;;;22.60;99.90;;;;;;7378765;19;20440;-79
2022/07/11 10:00:40;;;;;;;3.85;1.20;;;22.40;99.90;;;;;;7384135;19;20677;-79
2022/07/11 10:03:07;;;;;;;2.23;1.13;;;21.90;99.90;;;;;;7383616;19;20346;-79
2022/07/11 10:05:33;;;;;;;3.20;1.23;;;22.10;99.90;;;;;;7383520;19;20315;-81
2022/07/11 10:07:59;;;;;;;2.88;1.10;;;22.70;99.90;;;;;;7379175;19;20391;-81
2022/07/11 10:10:25;;;;;;;1.65;1.20;;;23.30;99.90;;;;;;7380453;19;20308;-81
2022/07/11 10:12:52;;;;;;;1.55;1.00;;;23.30;99.90;;;;;;7382417;19;20341;-79
2022/07/11 10:15:26;;;;;;;1.55;1.27;;;23.10;99.90;;;;;;7378938;19;20836;-79
2022/07/11 10:17:54;;;;;;;1.40;1.00;;;22.80;99.90;;;;;;7378225;19;20340;-79
2022/07/11 10:20:29;;;;;;;3.92;1.20;;;22.20;99.90;;;;;;7384618;19;20340;-79
2022/07/11 10:23:10;;;;;;;1.67;1.17;;;21.70;99.90;;;;;;7279277;19;2020426;-81
2022/07/11 10:25:46;;;;;;;2.63;1.23;;;21.70;99.90;;;;;;7382031;19;20320;-81
2022/07/11 10:28:26;;;;;;;2.00;1.10;;;21.30;99.90;;;;;;7378921;19;21813;-80
2022/07/11 10:31:01;;;;;;;1.45;1.20;;;21.30;99.90;;;;;;7382515;19;20415;-81
2022/07/11 10:33:30;;;;;;;1.15;1.10;;;21.10;99.90;;;;;;7282416;19;2004317;-79
2022/07/11 10:35:56;;;;;;;1.80;1.20;;;21.20;99.90;;;;;;7381743;19;20320;-80
2022/07/11 10:38:23;;;;;;;1.58;0.98;;;22.20;99.90;;;;;;7384165;19;20815;-79
2022/07/11 10:40:52;;;;;;;1.35;1.17;;;22.30;99.90;;;;;;7381327;19;21177;-79
2022/07/11 10:43:33;;;;;;;3.28;1.13;;;22.70;99.90;;;;;;7381951;19;20768;-81
2022/07/11 10:46:03;;;;;;;1.70;1.20;;;23.50;99.90;;;;;;7277967;19;2004272;-79
2022/07/11 10:48:30;;;;;;;2.05;1.10;;;23.20;99.90;;;;;;7384213;19;20321;-81
2022/07/11 10:51:09;;;;;;;1.10;1.00;;;22.90;99.90;;;;;;7384106;19;20359;-83
2022/07/11 10:53:53;;;;;;;1.50;1.17;;;22.60;99.90;;;;;;7383281;19;20308;-80
2022/07/11 10:56:25;;;;;;;2.20;1.20;;;22.70;99.90;;;;;;7381749;19;20309;-80
2022/07/11 10:59:13;;;;;;;1.80;1.00;;;22.60;99.90;;;;;;7381624;19;20356;-82
2022/07/11 11:02:02;;;;;;;1.25;1.00;;;23.20;99.90;;;;;;7277558;19;2004654;-80
2022/07/11 11:05:00;;;;;;;1.33;1.20;;;23.90;99.90;;;;;;7256854;19;2004784;-80
2022/07/11 11:07:34;;;;;;;1.73;1.00;;;23.60;99.90;;;;;;7279888;19;2005150;-81
2022/07/11 11:10:00;;;;;;;1.52;0.93;;;24.00;99.90;;;;;;7382697;19;21309;-81
2022/07/11 11:13:04;;;;;;;1.10;1.00;;;24.60;99.90;;;;;;7382038;19;20377;-79
2022/07/11 11:15:33;;;;;;;3.58;1.20;;;24.80;97.90;;;;;;7280675;19;2004431;-82
2022/07/11 11:18:24;;;;;;;1.95;1.08;;;24.90;96.50;;;;;;7382745;19;20345;-80
2022/07/11 11:21:07;;;;;;;2.42;1.08;;;24.80;94.70;;;;;;7390707;19;20303;-88
2022/07/11 11:23:39;;;;;;;1.23;1.10;;;25.90;95.60;;;;;;7266189;19;2004482;-80
2022/07/11 11:26:21;;;;;;;2.67;1.30;;;26.00;95.50;;;;;;7378543;19;20392;-82
2022/07/11 11:28:57;;;;;;;1.03;0.93;;;26.40;95.00;;;;;;7387681;19;20373;-80
2022/07/11 11:31:23;;;;;;;2.03;1.20;;;26.30;94.80;;;;;;7387523;19;20325;-85
2022/07/11 11:33:48;;;;;;;3.17;1.00;;;26.10;92.10;;;;;;7386396;19;20337;-84
2022/07/11 11:36:20;;;;;;;2.72;1.17;;;26.10;93.20;;;;;;7391255;19;20309;-81
2022/07/11 11:38:46;;;;;;;2.17;0.95;;;24.80;91.20;;;;;;7386611;19;20351;-83
2022/07/11 11:41:25;;;;;;;1.30;1.00;;;26.10;93.30;;;;;;7380522;19;20324;-80
2022/07/11 11:43:51;;;;;;;2.10;0.93;;;26.80;94.80;;;;;;7390098;19;20333;-81
2022/07/11 11:46:18;;;;;;;2.10;0.98;;;27.70;94.00;;;;;;7387396;19;20309;-80
2022/07/11 11:48:46;;;;;;;2.75;1.05;;;28.00;88.20;;;;;;7392818;19;20381;-80
2022/07/11 11:51:13;;;;;;;1.33;0.98;;;26.20;80.90;;;;;;7381978;19;20626;-81
2022/07/11 11:53:55;;;;;;;0.95;0.85;;;26.60;86.10;;;;;;7386875;19;20361;-80
2022/07/11 11:56:22;;;;;;;2.60;1.17;;;26.90;86.20;;;;;;7385561;19;20325;-80
2022/07/11 11:59:00;;;;;;;1.30;1.00;;;27.60;83.20;;;;;;7403936;19;20332;-81
2022/07/11 12:01:27;;;;;;;2.25;1.00;;;28.40;80.20;;;;;;7299859;19;2004568;-81
2022/07/11 12:03:55;;;;;;;1.30;0.90;;;28.20;78.00;;;;;;7397360;19;20312;-80
2022/07/11 12:06:27;;;;;;;1.10;0.85;;;26.60;78.30;;;;;;7388663;19;20420;-83
2022/07/11 12:08:58;;;;;;;3.10;1.05;;;26.60;83.10;;;;;;7367053;19;20325;-85
2022/07/11 12:11:24;;;;;;;2.38;1.10;;;26.70;83.50;;;;;;7284298;19;2004144;-83
2022/07/11 12:13:55;;;;;;;0.80;0.70;;;26.00;78.50;;;;;;7393446;19;20308;-82
2022/07/11 12:16:39;;;;;;;1.23;1.10;;;26.90;83.70;;;;;;7391266;19;20640;-81
2022/07/11 12:19:07;;;;;;;2.47;0.90;;;27.30;79.50;;;;;;7287275;19;2004394;-81
2022/07/11 12:21:34;;;;;;;1.05;0.85;;;27.60;77.00;;;;;;7391411;19;20296;-81
2022/07/11 12:24:01;;;;;;;2.30;0.90;;;26.80;78.10;;;;;;7394321;19;20383;-84
2022/07/11 12:26:29;;;;;;;1.08;0.95;;;26.20;85.00;;;;;;7389286;19;20337;-84
2022/07/11 12:29:12;;;;;;;1.80;1.00;;;25.70;82.30;;;;;;7387793;19;21172;-83
2022/07/11 12:31:50;;;;;;;1.00;0.95;;;26.20;81.00;;;;;;7392027;19;20309;-83
2022/07/11 12:34:24;;;;;;;1.42;1.00;;;26.50;81.70;;;;;;7388442;19;20309;-82
2022/07/11 12:36:51;;;;;;;1.95;0.90;;;26.90;81.80;;;;;;7383103;19;20297;-81
2022/07/11 12:39:25;;;;;;;1.50;1.00;;;27.30;77.40;;;;;;7385704;19;20329;-82
2022/07/11 12:41:59;;;;;;;2.63;1.00;;;27.00;77.80;;;;;;7285824;19;2004379;-82
2022/07/11 12:47:14;;;;;;;1.08;0.93;;;26.20;78.50;;;;;;7390999;19;20412;-83
2022/07/11 12:49:44;;;;;;;0.93;0.90;;;25.80;78.90;;;;;;7395884;19;20324;-87
2022/07/11 12:52:13;;;;;;;0.90;0.70;;;25.90;81.30;;;;;;7395718;19;20301;-83
2022/07/11 12:54:42;;;;;;;1.50;1.00;;;26.00;79.70;;;;;;7393417;19;22209;-81
2022/07/11 12:57:07;;;;;;;2.73;0.97;;;26.20;77.10;;;;;;7392721;19;20336;-80
2022/07/11 12:59:34;;;;;;;3.20;0.90;;;25.70;80.10;;;;;;7392765;19;20317;-89